Current Weather

Bridgeport/Sikorsky

Bridgeport, Connecticut (KBDR)

Report from: Tuesday, July 16, 2024 10:52 AM EDT
Current time: Tuesday, July 16, 2024 11:09 AM EDT

Nearby weather – Weather history – Daily summaries
Weather forecast

Temperature28.9°C (84.0°F)
Heat index31.5°C (88.7°F)
Dew point21.1°C (70.0°F)
Winds 9 kts (4.6 m/s, 10.4 mph) Southwest (220°)
Visibility10 mi. (16.1 km)
Clouds Sky clear
Altimeter29.83 in.Hg (1010 mB)
Relative humidity63 %
Density altitude2,034 ft. (620 m)
Sea-level pressure101.0 kPa (1010 mB, 29.83 in.Hg)
Remarks Automated weather observing station with precipitation discriminator
Pressure falling, then rising
Flight conditions Visual Meteorological Conditions
Raw dataKBDR 161452Z 22009KT 10SM CLR 29/21 A2983 RMK AO2 SLP103 T02890211 55002
An error has occurred. This application may no longer respond until reloaded. Reload 🗙